Time;durP1;ratioP1;P1;durP2;ratioP2;P2;SDS_P1;SDS_P2;PMS_P1;PMS_P2;Temp;Humidity;BMP_temperature;BMP_pressure;BME280_temperature;BME280_humidity;BME280_pressure;Samples;Min_cycle;Max_cycle;Signal;HPM_P1;HPM_P2
2023/06/21 00:01:57;;;;;;;;;10.67;10.33;;;;;22.99;52.89;100999.75;146609;571;46010;-70
2023/06/21 00:05:00;;;;;;;;;;;;;;;;;;;;;
2023/06/21 00:07:55;;;;;;;;;15.00;12.50;;;;;22.88;54.88;100997.88;146602;608;47010;-71
2023/06/21 00:11:19;;;;;;;;;16.00;14.00;;;;;21.31;54.86;100729.22;146602;578;46013;-70
2023/06/21 00:14:11;;;;;;;;;11.50;10.75;;;;;22.82;57.28;100993.44;146613;581;45020;-71
2023/06/21 00:17:05;;;;;;;;;15.50;13.75;;;;;22.81;57.93;100995.19;146605;636;46916;-70
2023/06/21 00:20:20;;;;;;;;;15.50;14.00;;;;;20.71;56.22;100628.56;146609;646;46020;-69
2023/06/21 00:23:22;;;;;;;;;13.75;12.50;;;;;22.81;57.84;100987.28;146603;624;46016;-70
2023/06/21 00:26:20;;;;;;;;;15.00;11.75;;;;;22.82;57.97;100986.37;146608;581;46020;-69
2023/06/21 00:29:15;;;;;;;;;13.00;10.75;;;;;22.86;57.88;100984.62;146597;579;49915;-69
2023/06/21 00:32:14;;;;;;;;;16.75;11.50;;;;;22.92;58.04;100984.66;146609;713;46020;-68
2023/06/21 00:35:34;;;;;;;;;15.50;11.50;;;;;22.97;56.62;100985.63;146604;709;46016;-68
2023/06/21 00:38:46;;;;;;;;;13.75;10.75;;;;;23.04;56.38;100990.03;146602;651;46010;-69
2023/06/21 00:41:45;;;;;;;;;13.50;11.25;;;;;;;;146604;588;46012;-68
2023/06/21 00:44:53;;;;;;;;;12.50;10.50;;;;;22.55;55.49;100907.84;146610;664;46018;-68
2023/06/21 00:48:03;;;;;;;;;11.50;10.00;;;;;22.98;55.36;100994.44;146605;716;46012;-68
2023/06/21 00:51:07;;;;;;;;;13.50;10.25;;;;;21.96;56.13;100822.94;146609;564;46018;-76
2023/06/21 00:54:05;;;;;;;;;11.50;11.50;;;;;22.94;56.12;100998.81;146603;569;47011;-76
2023/06/21 00:57:08;;;;;;;;;16.00;13.00;;;;;22.95;55.91;100997.94;146605;600;46010;-73
2023/06/21 01:00:09;;;;;;;;;11.50;10.00;;;;;22.94;58.13;100998.81;146604;678;46018;-73
2023/06/21 01:03:06;;;;;;;;;13.25;12.25;;;;;22.85;58.04;100998.75;146606;581;46018;-74
2023/06/21 01:06:40;;;;;;;;;10.75;10.25;;;;;22.74;56.02;101000.44;146605;584;46021;-74
2023/06/21 01:10:31;;;;;;;;;;;;;;;;;;;;;
2023/06/21 01:14:27;;;;;;;;;11.25;11.00;;;;;21.18;56.46;100773.06;146603;563;47012;-74
2023/06/21 01:17:32;;;;;;;;;12.75;11.50;;;;;22.38;57.88;100996.69;146634;611;45024;-75
2023/06/21 01:21:05;;;;;;;;;13.00;11.75;;;;;22.37;56.21;101008.12;146629;565;45012;-72
2023/06/21 01:24:50;;;;;;;;;;;;;;;;;;;;;
2023/06/21 01:28:36;;;;;;;;;12.00;11.75;;;;;21.13;57.57;100815.22;146634;710;45026;-69
2023/06/21 01:31:42;;;;;;;;;13.25;12.00;;;;;22.33;58.42;101014.25;146635;610;45019;-71
2023/06/21 01:34:57;;;;;;;;;13.00;10.50;;;;;22.33;59.88;101011.59;146633;563;45018;-70
2023/06/21 01:37:52;;;;;;;;;11.50;11.50;;;;;22.29;60.08;101013.34;146635;647;46010;-70
2023/06/21 01:40:50;;;;;;;;;10.00;9.25;;;;;22.24;60.56;101015.09;146630;644;45915;-70
2023/06/21 01:43:52;;;;;;;;;10.50;10.50;;;;;22.22;61.15;101021.22;146629;676;45018;-69
2023/06/21 01:46:51;;;;;;;;;13.25;11.50;;;;;22.21;60.91;101020.34;146631;636;45019;-69
2023/06/21 01:49:50;;;;;;;;;11.25;10.00;;;;;22.21;60.06;101016.78;146635;565;45018;-71
2023/06/21 01:53:10;;;;;;;;;;;;;;;;;;;;;
2023/06/21 01:56:18;;;;;;;;;10.75;10.00;;;;;22.08;61.39;101026.34;146636;582;45008;-68
2023/06/21 01:59:38;;;;;;;;;10.25;10.25;;;;;19.98;61.39;100678.72;146630;589;45916;-71
2023/06/21 02:02:43;;;;;;;;;13.25;12.25;;;;;21.97;63.41;101038.56;146632;586;46008;-70
2023/06/21 02:06:05;;;;;;;;;13.25;12.75;;;;;21.94;61.53;101043.81;146633;588;45018;-71
2023/06/21 02:09:06;;;;;;;;;14.00;13.25;;;;;20.92;63.50;100860.69;146634;682;45019;-74
2023/06/21 02:12:27;;;;;;;;;11.75;11.75;;;;;21.91;63.30;101036.75;146631;574;45917;-75
2023/06/21 02:15:38;;;;;;;;;11.75;11.75;;;;;21.89;62.42;101043.75;146609;593;46008;-74
2023/06/21 02:18:37;;;;;;;;;14.00;12.00;;;;;21.87;64.10;101046.41;146603;572;46029;-75
2023/06/21 02:22:02;;;;;;;;;12.50;11.25;;;;;21.79;64.40;101047.19;146605;681;47008;-71
2023/06/21 02:25:00;;;;;;;;;13.75;11.50;;;;;21.74;63.99;101055.03;146606;620;46019;-70
2023/06/21 02:28:08;;;;;;;;;14.25;11.75;;;;;19.90;62.73;100752.28;146608;563;46018;-71
2023/06/21 02:31:06;;;;;;;;;14.25;12.75;;;;;21.63;65.11;101060.22;146605;699;46019;-72
2023/06/21 02:34:23;;;;;;;;;11.25;11.00;;;;;21.64;64.83;101061.97;146610;610;46018;-71
2023/06/21 02:37:41;;;;;;;;;16.25;15.00;;;;;20.54;62.47;100862.88;146607;640;46010;-70
2023/06/21 02:40:49;;;;;;;;;12.00;12.00;;;;;21.74;64.40;101057.69;146609;678;46018;-71
2023/06/21 02:43:50;;;;;;;;;12.00;11.25;;;;;21.78;63.09;101059.50;146605;648;46018;-70
2023/06/21 02:46:50;;;;;;;;;11.00;11.00;;;;;21.80;65.21;101064.78;146604;617;46019;-71
2023/06/21 02:49:43;;;;;;;;;15.00;14.00;;;;;21.81;64.97;101079.78;146606;668;46018;-70
2023/06/21 02:52:44;;;;;;;;;16.25;11.75;;;;;21.84;65.19;101061.31;146608;614;47018;-69
2023/06/21 02:56:00;;;;;;;;;11.75;11.75;;;;;20.75;62.24;100867.53;146605;604;47010;-69
2023/06/21 02:59:01;;;;;;;;;13.50;12.00;;;;;21.92;63.81;101067.56;146607;590;46027;-71
2023/06/21 03:02:00;;;;;;;;;10.25;10.25;;;;;21.88;63.20;101074.56;146606;666;46018;-70
2023/06/21 03:05:00;;;;;;;;;13.00;11.75;;;;;21.83;63.83;101080.66;146606;616;46018;-70
2023/06/21 03:08:20;;;;;;;;;;;;;;;;;;;;;
2023/06/21 03:11:21;;;;;;;;;12.75;10.75;;;;;21.71;64.83;101083.16;146609;637;46008;-71
2023/06/21 03:14:19;;;;;;;;;15.50;12.75;;;;;21.70;64.29;101086.69;146607;655;46019;-71
2023/06/21 03:17:17;;;;;;;;;13.75;12.00;;;;;21.63;63.85;101085.72;146602;594;47008;-71
2023/06/21 03:20:24;;;;;;;;;11.75;9.25;;;;;21.58;63.07;101088.28;146607;578;46018;-71
2023/06/21 03:23:20;;;;;;;;;10.00;10.00;;;;;21.57;64.03;101091.81;146617;591;46019;-69
2023/06/21 03:26:32;;;;;;;;;11.50;11.00;;;;;21.57;62.73;101093.56;146603;591;47010;-71
2023/06/21 03:29:36;;;;;;;;;14.00;11.00;;;;;21.61;63.51;101098.88;146609;581;46008;-71
2023/06/21 03:32:49;;;;;;;;;11.00;10.25;;;;;21.62;63.95;101100.69;146604;571;46917;-70
2023/06/21 03:35:58;;;;;;;;;11.50;10.50;;;;;21.64;64.39;101103.31;146608;613;46018;-69
2023/06/21 03:39:13;;;;;;;;;12.00;12.00;;;;;21.63;62.26;101102.44;146604;636;46011;-71
2023/06/21 03:42:06;;;;;;;;;12.25;11.25;;;;;21.68;63.88;101102.47;146611;603;46018;-70
2023/06/21 03:45:03;;;;;;;;;13.00;11.50;;;;;21.70;62.86;101106.03;146605;621;46019;-70
2023/06/21 03:47:58;;;;;;;;;14.25;11.75;;;;;21.75;63.08;101111.37;146602;573;46029;-71
2023/06/21 03:51:03;;;;;;;;;10.75;10.75;;;;;21.69;61.25;101099.00;146605;678;46010;-70
2023/06/21 03:54:16;;;;;;;;;12.75;10.00;;;;;21.90;62.65;101119.47;146609;658;46018;-71
2023/06/21 03:57:12;;;;;;;;;14.00;12.00;;;;;22.01;61.99;101124.84;146607;590;46018;-71
2023/06/21 04:00:29;;;;;;;;;11.75;11.75;;;;;22.13;60.72;101130.28;146611;587;46018;-71
2023/06/21 04:03:33;;;;;;;;;13.50;12.50;;;;;22.24;61.56;101127.75;146603;619;47012;-70
2023/06/21 04:06:26;;;;;;;;;12.25;10.50;;;;;22.35;62.88;101131.41;146609;596;46008;-68
2023/06/21 04:09:23;;;;;;;;;12.75;12.75;;;;;22.49;62.21;101127.16;146606;569;46030;-70
2023/06/21 04:12:41;;;;;;;;;15.00;13.50;;;;;22.65;59.84;101132.53;146608;642;47018;-70
2023/06/21 04:15:51;;;;;;;;;15.50;14.00;;;;;21.68;61.10;100939.75;146628;596;46010;-69
2023/06/21 04:18:55;;;;;;;;;15.00;13.00;;;;;22.94;61.08;101138.97;146629;613;45018;-68
2023/06/21 04:21:55;;;;;;;;;11.25;10.00;;;;;23.09;61.16;101150.53;146634;600;45018;-69
2023/06/21 04:24:50;;;;;;;;;12.75;11.25;;;;;23.23;62.54;101149.72;146634;570;45010;-68
2023/06/21 04:27:50;;;;;;;;;11.00;11.00;;;;;23.39;61.39;101153.34;146632;617;46010;-68
2023/06/21 04:30:51;;;;;;;;;18.00;16.25;;;;;23.52;62.07;101157.84;146634;595;45008;-67
2023/06/21 04:33:46;;;;;;;;;10.00;10.00;;;;;23.61;62.88;101159.63;146633;595;45030;-68
2023/06/21 04:36:52;;;;;;;;;;;;;;;;;;;;;
2023/06/21 04:39:48;;;;;;;;;13.00;12.00;;;;;23.80;62.86;101158.00;146634;636;45018;-69
2023/06/21 04:42:47;;;;;;;;;16.00;13.00;;;;;23.94;63.13;101156.28;146635;593;45018;-69
2023/06/21 04:45:49;;;;;;;;;13.00;12.25;;;;;24.12;62.47;101170.47;146632;583;46010;-69
2023/06/21 04:48:56;;;;;;;;;14.50;12.75;;;;;24.32;63.23;101171.38;146629;693;46008;-69
2023/06/21 04:52:19;;;;;;;;;14.00;12.25;;;;;24.54;61.46;101174.09;146632;619;45013;-69
2023/06/21 04:55:26;;;;;;;;;14.75;11.00;;;;;24.77;62.83;101182.09;146637;576;44912;-68
2023/06/21 04:58:35;;;;;;;;;15.00;13.25;;;;;24.97;61.87;101184.72;146633;662;45018;-67
2023/06/21 05:01:42;;;;;;;;;12.00;11.00;;;;;25.19;60.63;101183.84;146632;581;46008;-67
2023/06/21 05:04:43;;;;;;;;;16.00;14.25;;;;;25.38;61.49;101183.81;146631;598;45018;-67
2023/06/21 05:07:44;;;;;;;;;16.00;13.25;;;;;25.55;61.00;101187.31;146636;699;45019;-68
2023/06/21 05:10:51;;;;;;;;;11.00;10.00;;;;;25.70;60.93;101186.34;146631;692;46018;-67
2023/06/21 05:13:53;;;;;;;;;11.50;11.00;;;;;25.84;60.75;101189.00;146633;626;46019;-66
2023/06/21 05:16:48;;;;;;;;;15.50;15.50;;;;;25.97;59.67;101186.28;146603;580;47010;-66
2023/06/21 05:19:49;;;;;;;;;13.00;12.00;;;;;26.13;59.29;101187.06;146602;594;46018;-67
2023/06/21 05:22:45;;;;;;;;;13.50;10.50;;;;;26.23;57.43;101190.56;146604;577;47019;-70
2023/06/21 05:25:39;;;;;;;;;12.00;12.00;;;;;26.31;58.70;101196.72;146610;578;46018;-68
2023/06/21 05:28:35;;;;;;;;;4.75;4.75;;;;;26.39;57.97;101197.56;146605;691;46010;-67
2023/06/21 05:31:42;;;;;;;;;12.25;12.25;;;;;26.50;56.70;101194.84;146614;658;46018;-68
2023/06/21 05:34:36;;;;;;;;;10.50;10.50;;;;;26.59;57.51;101193.91;146605;620;46018;-68
2023/06/21 05:37:53;;;;;;;;;12.25;11.25;;;;;26.69;56.98;101199.16;146609;657;46019;-67
2023/06/21 05:41:00;;;;;;;;;13.25;11.50;;;;;26.79;57.06;101196.41;146607;655;46028;-68
2023/06/21 05:44:11;;;;;;;;;12.25;10.75;;;;;25.75;54.87;101004.84;146609;570;46008;-68
2023/06/21 05:47:14;;;;;;;;;14.25;11.75;;;;;26.92;55.56;101200.75;146608;573;46018;-67
2023/06/21 05:50:06;;;;;;;;;11.50;10.50;;;;;26.93;55.55;101198.06;146600;578;47008;-68
2023/06/21 05:53:09;;;;;;;;;14.00;12.00;;;;;26.94;54.23;101202.47;146607;579;46018;-68
2023/06/21 05:56:17;;;;;;;;;;;;;;;;;;;;;
2023/06/21 05:59:32;;;;;;;;;12.50;11.00;;;;;25.88;54.08;101010.09;146605;610;46020;-69
2023/06/21 06:02:34;;;;;;;;;12.67;12.67;;;;;27.08;54.51;101199.72;146607;658;47008;-67
2023/06/21 06:05:33;;;;;;;;;12.50;11.75;;;;;27.13;55.49;101205.88;146606;628;46019;-69
2023/06/21 06:08:38;;;;;;;;;12.50;12.25;;;;;27.15;55.67;101206.78;146610;576;46018;-68
2023/06/21 06:11:57;;;;;;;;;14.50;14.50;;;;;27.19;55.21;101207.63;146605;608;46020;-67
2023/06/21 06:14:38;;;;;;;;;11.75;11.50;;;;;27.20;55.92;101209.41;146710;573;46012;-67
2023/06/21 06:17:31;;;;;;;;;13.25;12.00;;;;;27.23;55.39;101208.47;146619;569;46942;-70
2023/06/21 06:20:52;;;;;;;;;10.75;10.75;;;;;26.11;54.13;101009.94;146622;658;46020;-68
2023/06/21 06:23:46;;;;;;;;;17.50;14.00;;;;;27.28;55.05;101207.53;146619;735;45036;-67
2023/06/21 06:26:44;;;;;;;;;16.25;13.25;;;;;27.37;55.11;101212.75;146622;593;47010;-71
2023/06/21 06:29:41;;;;;;;;;11.50;11.50;;;;;27.49;54.52;101219.75;146619;624;46012;-72
2023/06/21 06:32:36;;;;;;;;;12.25;11.50;;;;;27.62;53.72;101217.81;146622;579;46021;-71
2023/06/21 06:35:40;;;;;;;;;14.00;11.75;;;;;27.75;52.55;101216.78;146616;584;46016;-72
2023/06/21 06:38:37;;;;;;;;;13.00;11.25;;;;;27.84;52.37;101219.38;146623;699;46020;-70
2023/06/21 06:41:47;;;;;;;;;14.75;13.00;;;;;27.83;51.38;101216.75;146620;573;46017;-70
2023/06/21 06:44:46;;;;;;;;;13.50;13.00;;;;;27.79;52.78;101213.22;146620;662;46020;-70
2023/06/21 06:47:44;;;;;;;;;14.00;12.00;;;;;27.94;52.35;101211.25;146617;589;46016;-69
2023/06/21 06:51:02;;;;;;;;;6.50;5.50;;;;;26.97;51.12;101011.75;146623;628;46010;-69
2023/06/21 06:54:17;;;;;;;;;12.00;12.00;;;;;27.26;50.71;101035.38;146628;615;46012;-68
2023/06/21 06:57:22;;;;;;;;;12.00;11.75;;;;;28.27;50.62;101205.47;146620;601;46012;-68
2023/06/21 07:00:33;;;;;;;;;13.50;12.00;;;;;28.23;52.22;101202.87;146617;661;46914;-68
2023/06/21 07:03:26;;;;;;;;;10.50;9.00;;;;;28.21;51.67;101208.22;146621;564;46021;-69
2023/06/21 07:06:24;;;;;;;;;12.75;11.25;;;;;28.24;51.95;101209.97;146623;711;46016;-69
2023/06/21 07:09:23;;;;;;;;;9.50;8.00;;;;;28.27;51.01;101207.25;146624;643;46010;-71
2023/06/21 07:12:30;;;;;;;;;10.50;9.50;;;;;27.46;50.59;101093.72;146628;719;46012;-70
2023/06/21 07:15:39;;;;;;;;;14.75;12.50;;;;;26.48;50.67;100893.50;146622;634;46010;-71
2023/06/21 07:18:34;;;;;;;;;15.00;13.50;;;;;28.30;51.89;101208.09;146616;630;46012;-69
2023/06/21 07:21:31;;;;;;;;;11.00;9.67;;;;;28.38;49.75;101213.34;146621;591;46010;-69
2023/06/21 07:24:33;;;;;;;;;15.75;13.25;;;;;28.46;50.82;101211.44;146616;579;47014;-70
2023/06/21 07:27:37;;;;;;;;;12.50;11.50;;;;;28.53;51.20;101206.91;146618;694;46020;-68
2023/06/21 07:30:34;;;;;;;;;15.00;13.25;;;;;28.55;52.63;101195.31;146614;724;46016;-70
2023/06/21 07:33:42;;;;;;;;;12.67;12.00;;;;;28.71;50.89;101197.72;146616;648;48010;-70
2023/06/21 07:36:35;;;;;;;;;13.00;11.75;;;;;28.68;49.65;101200.44;146616;715;46016;-70
2023/06/21 07:39:29;;;;;;;;;10.00;10.00;;;;;28.62;49.97;101206.75;146620;660;46021;-71
2023/06/21 07:42:44;;;;;;;;;14.00;13.75;;;;;27.24;50.43;100974.19;146617;603;46012;-70
2023/06/21 07:45:51;;;;;;;;;15.00;14.25;;;;;27.55;50.52;101025.22;146616;579;46022;-69
2023/06/21 07:48:49;;;;;;;;;12.00;11.00;;;;;28.69;50.17;101208.44;146619;651;46012;-70
2023/06/21 07:51:42;;;;;;;;;13.50;12.50;;;;;28.79;51.01;101206.50;146622;645;46010;-68
2023/06/21 07:54:47;;;;;;;;;13.50;12.00;;;;;28.91;50.77;101210.72;146616;595;46012;-68
2023/06/21 07:57:49;;;;;;;;;12.00;11.00;;;;;28.91;49.75;101203.63;146618;579;46020;-69
2023/06/21 08:00:51;;;;;;;;;15.50;13.75;;;;;28.93;51.25;101204.47;146613;581;46016;-71
2023/06/21 08:03:55;;;;;;;;;18.00;15.00;;;;;29.01;51.24;101204.38;146618;566;46012;-69
2023/06/21 08:06:55;;;;;;;;;12.00;11.00;;;;;29.12;49.93;101202.38;146616;647;46012;-70
2023/06/21 08:10:12;;;;;;;;;;;;;;;;;;;;;
2023/06/21 08:13:17;;;;;;;;;14.75;13.75;;;;;29.05;48.45;101205.22;146613;566;47012;-69
2023/06/21 08:16:38;;;;;;;;;10.75;10.50;;;;;29.03;48.03;101197.22;146620;673;47010;-69
2023/06/21 08:19:42;;;;;;;;;14.25;12.00;;;;;29.18;49.12;101204.94;146616;660;46016;-71
2023/06/21 08:22:39;;;;;;;;;15.25;14.75;;;;;29.35;49.76;101198.44;146619;569;46010;-71
2023/06/21 08:25:52;;;;;;;;;;;;;;;;;;;;;
2023/06/21 08:29:03;;;;;;;;;12.75;12.75;;;;;29.64;48.82;101205.91;146612;634;47010;-71
2023/06/21 08:32:11;;;;;;;;;14.50;14.25;;;;;29.74;48.03;101201.25;146615;621;46017;-71
2023/06/21 08:35:06;;;;;;;;;14.00;14.00;;;;;29.78;47.95;101194.91;146618;601;45020;-69
2023/06/21 08:38:26;;;;;;;;;11.50;11.25;;;;;29.76;47.92;101196.75;146618;564;46012;-70
2023/06/21 08:41:31;;;;;;;;;12.75;12.25;;;;;29.76;47.55;101191.41;146621;599;46020;-69
2023/06/21 08:44:29;;;;;;;;;13.25;12.75;;;;;29.75;47.91;101198.56;146617;666;46016;-70
2023/06/21 08:47:38;;;;;;;;;11.33;11.00;;;;;29.75;46.98;101200.31;146619;613;46027;-70
2023/06/21 08:50:32;;;;;;;;;13.00;10.00;;;;;28.89;46.26;101050.63;146618;671;46917;-71
2023/06/21 08:54:30;;;;;;;;;10.00;10.00;;;;;27.98;47.73;100899.38;146617;572;46021;-70
2023/06/21 08:57:31;;;;;;;;;9.00;8.25;;;;;29.56;45.25;101189.97;146616;625;46016;-70
2023/06/21 09:00:39;;;;;;;;;9.67;8.33;;;;;29.38;45.19;101187.69;146625;572;46021;-70
2023/06/21 09:03:52;;;;;;;;;11.00;9.33;;;;;29.27;46.03;101184.34;146621;613;46016;-71
2023/06/21 09:07:13;;;;;;;;;10.00;10.00;;;;;29.22;46.49;101187.97;146623;571;46012;-72
2023/06/21 09:10:30;;;;;;;;;10.75;10.75;;;;;29.29;45.75;101188.75;146619;585;45029;-70
2023/06/21 09:13:37;;;;;;;;;7.75;7.00;;;;;29.40;45.40;101185.84;146618;626;46020;-71
2023/06/21 09:16:47;;;;;;;;;9.67;9.67;;;;;29.46;45.54;101183.94;146618;581;46033;-70
2023/06/21 09:19:40;;;;;;;;;11.25;9.00;;;;;29.54;44.85;101189.16;146621;634;46020;-70
2023/06/21 09:22:43;;;;;;;;;10.50;8.50;;;;;29.64;45.88;101182.72;146618;628;46016;-70
2023/06/21 09:25:54;;;;;;;;;10.33;9.67;;;;;29.75;45.68;101187.88;146623;577;46020;-70
2023/06/21 09:28:55;;;;;;;;;11.00;9.00;;;;;29.75;45.29;101182.53;146618;587;46014;-70
2023/06/21 09:32:11;;;;;;;;;9.33;8.33;;;;;29.75;44.18;101181.63;146624;669;46020;-70
2023/06/21 09:35:20;;;;;;;;;10.25;8.00;;;;;28.27;44.48;100929.94;146617;708;46914;-69
2023/06/21 09:38:33;;;;;;;;;8.33;8.33;;;;;29.76;44.60;101175.38;146622;628;47012;-71
2023/06/21 09:41:17;;;;;;;;;12.00;11.00;;;;;29.80;46.22;101177.94;146703;569;46022;-69
2023/06/21 09:44:12;;;;;;;;;10.00;10.00;;;;;29.93;44.69;101168.72;146614;660;46016;-70
2023/06/21 09:47:12;;;;;;;;;8.75;8.50;;;;;29.98;43.50;101173.13;146616;670;46020;-69
2023/06/21 09:50:22;;;;;;;;;10.50;10.50;;;;;29.93;45.13;101175.87;146616;569;46016;-69
2023/06/21 09:53:37;;;;;;;;;12.00;10.00;;;;;29.91;44.21;101178.59;146614;644;47010;-69
2023/06/21 09:56:39;;;;;;;;;9.67;9.00;;;;;29.87;44.57;101163.53;146612;580;46917;-71
2023/06/21 09:59:49;;;;;;;;;6.67;6.67;;;;;29.88;43.87;101159.97;146623;593;46010;-70
2023/06/21 10:02:47;;;;;;;;;9.67;8.00;;;;;29.83;43.09;101159.16;146620;709;46917;-71
2023/06/21 10:06:19;;;;;;;;;11.75;9.75;;;;;29.81;45.49;101160.97;146622;659;46010;-70
2023/06/21 10:09:54;;;;;;;;;10.25;9.50;;;;;29.74;46.33;101156.69;146617;639;46016;-70
2023/06/21 10:13:10;;;;;;;;;12.25;11.75;;;;;29.87;45.70;101159.97;146623;691;46033;-71
2023/06/21 10:16:35;;;;;;;;;10.33;10.33;;;;;29.92;45.64;101156.28;146617;640;47012;-70
2023/06/21 10:19:34;;;;;;;;;8.00;8.00;;;;;30.13;45.48;101148.72;146614;577;47010;-71
2023/06/21 10:22:27;;;;;;;;;10.00;10.00;;;;;30.28;44.54;101147.47;146617;582;46012;-70
2023/06/21 10:25:23;;;;;;;;;8.33;8.33;;;;;29.94;45.52;101070.72;146612;577;47011;-70
2023/06/21 10:28:32;;;;;;;;;8.67;8.00;;;;;30.45;45.19;101149.78;146617;624;46029;-71
2023/06/21 10:31:30;;;;;;;;;8.00;8.00;;;;;30.44;43.78;101146.22;146620;609;47014;-71
2023/06/21 10:34:35;;;;;;;;;8.00;8.00;;;;;30.41;45.30;101142.75;146618;639;46017;-72
2023/06/21 10:38:18;;;;;;;;;10.33;9.33;;;;;30.27;44.53;101114.50;146624;628;46020;-70
2023/06/21 10:41:29;;;;;;;;;9.00;8.00;;;;;30.39;43.49;101142.75;146620;679;47013;-70
2023/06/21 10:44:32;;;;;;;;;11.33;10.00;;;;;30.37;43.41;101142.81;146619;640;46020;-69
2023/06/21 10:47:24;;;;;;;;;10.50;10.25;;;;;29.40;44.55;100982.84;146699;564;46014;-69
2023/06/21 10:50:24;;;;;;;;;11.00;10.00;;;;;30.35;43.94;101135.75;146617;636;46943;-71
2023/06/21 10:53:23;;;;;;;;;10.00;8.00;;;;;30.36;44.01;101137.50;146624;587;46012;-70
2023/06/21 10:56:16;;;;;;;;;12.00;9.75;;;;;28.12;43.89;100772.94;146620;617;46012;-70
2023/06/21 10:59:29;;;;;;;;;9.67;9.00;;;;;30.41;45.04;101134.72;146620;590;46020;-71
2023/06/21 11:02:27;;;;;;;;;8.33;8.33;;;;;30.38;43.57;101136.53;146622;552;46014;-70
2023/06/21 11:05:51;;;;;;;;;10.00;7.67;;;;;30.32;43.73;101135.81;146623;627;47010;-71
2023/06/21 11:08:46;;;;;;;;;9.00;7.33;;;;;30.34;42.95;101132.19;146621;634;46017;-70
2023/06/21 11:11:40;;;;;;;;;11.25;10.25;;;;;30.37;41.88;101129.44;146622;676;46036;-70
2023/06/21 11:14:55;;;;;;;;;9.00;8.67;;;;;30.43;41.76;101133.75;146618;576;46013;-70
2023/06/21 11:18:26;;;;;;;;;11.33;9.33;;;;;30.42;41.40;101126.62;146621;572;46012;-70
2023/06/21 11:21:49;;;;;;;;;8.00;7.00;;;;;30.43;41.05;101124.84;146620;571;46012;-71
2023/06/21 11:25:04;;;;;;;;;9.67;9.67;;;;;30.42;43.10;101128.44;146621;569;46020;-70
2023/06/21 11:28:36;;;;;;;;;9.00;8.00;;;;;30.37;43.20;101116.06;146618;683;46016;-70
2023/06/21 11:31:42;;;;;;;;;9.75;9.75;;;;;30.32;41.69;101115.28;146622;732;46020;-70
2023/06/21 11:34:35;;;;;;;;;9.00;9.00;;;;;30.21;42.09;101111.97;146619;607;47012;-70
2023/06/21 11:38:02;;;;;;;;;9.33;9.00;;;;;30.00;42.99;101110.69;146621;638;46021;-71
2023/06/21 11:40:58;;;;;;;;;10.33;9.00;;;;;29.97;42.89;101109.84;146617;599;46016;-70
2023/06/21 11:44:01;;;;;;;;;8.00;8.00;;;;;30.01;42.77;101098.19;146623;570;46020;-70
2023/06/21 11:47:19;;;;;;;;;10.00;9.00;;;;;30.13;43.84;101113.94;146619;679;46014;-71
2023/06/21 11:50:23;;;;;;;;;10.67;9.67;;;;;30.25;43.38;101111.00;146624;619;46010;-71
2023/06/21 11:53:48;;;;;;;;;8.25;7.75;;;;;30.21;43.97;101081.69;146618;626;46013;-71
2023/06/21 11:56:55;;;;;;;;;8.33;8.33;;;;;30.45;42.62;101105.16;146625;586;45031;-69
2023/06/21 11:59:48;;;;;;;;;8.00;8.00;;;;;30.57;43.37;101109.31;146620;609;46012;-70
2023/06/21 12:02:53;;;;;;;;;9.67;9.00;;;;;30.68;43.22;101109.91;146619;565;46020;-69
2023/06/21 12:06:03;;;;;;;;;9.00;7.33;;;;;30.80;43.33;101103.41;146620;577;46012;-69
2023/06/21 12:09:06;;;;;;;;;9.00;8.00;;;;;30.86;42.75;101107.72;146620;583;46021;-70
2023/06/21 12:12:07;;;;;;;;;9.00;8.33;;;;;30.91;42.96;101103.12;146618;667;46016;-69
2023/06/21 12:15:21;;;;;;;;;;;;;;;;;;;;;
2023/06/21 12:18:20;;;;;;;;;7.00;7.00;;;;;30.93;41.71;101094.09;146621;592;46012;-70
2023/06/21 12:21:23;;;;;;;;;10.67;10.00;;;;;30.91;39.15;101109.34;146623;660;46021;-70
2023/06/21 12:24:39;;;;;;;;;10.00;10.00;;;;;30.81;41.61;101089.97;146617;570;46016;-70
2023/06/21 12:27:42;;;;;;;;;10.00;10.00;;;;;30.80;41.93;101093.56;146621;572;45043;-70
2023/06/21 12:30:35;;;;;;;;;9.33;9.33;;;;;30.87;41.25;101091.59;146616;580;46016;-70
2023/06/21 12:33:32;;;;;;;;;7.00;6.67;;;;;30.97;40.26;101097.59;146619;596;46020;-69
2023/06/21 12:36:33;;;;;;;;;8.33;8.33;;;;;31.08;41.61;101097.28;146617;564;46017;-70
2023/06/21 12:39:25;;;;;;;;;10.33;8.00;;;;;31.16;42.33;101095.28;146623;591;46012;-70
2023/06/21 12:42:27;;;;;;;;;8.67;8.00;;;;;31.18;43.65;101090.75;146617;593;46016;-70
2023/06/21 12:45:40;;;;;;;;;7.67;7.67;;;;;31.18;44.11;101096.97;146621;564;46021;-71
2023/06/21 12:48:42;;;;;;;;;7.00;7.00;;;;;31.16;43.68;101090.81;146620;573;46012;-71
2023/06/21 12:51:49;;;;;;;;;9.33;8.33;;;;;30.01;43.59;100937.75;146620;605;46022;-70
2023/06/21 12:55:04;;;;;;;;;9.00;7.67;;;;;30.87;43.98;101093.41;146614;578;46016;-71
2023/06/21 12:57:58;;;;;;;;;10.33;10.33;;;;;30.80;43.54;101079.31;146622;585;46020;-70
2023/06/21 13:00:51;;;;;;;;;8.67;7.67;;;;;30.78;39.60;101079.34;146615;566;47012;-71
2023/06/21 13:03:59;;;;;;;;;9.33;8.33;;;;;29.10;42.20;100802.84;146623;573;46020;-71
2023/06/21 13:07:06;;;;;;;;;8.67;8.33;;;;;30.69;41.11;101079.56;146617;638;46016;-70
2023/06/21 13:10:06;;;;;;;;;9.67;8.33;;;;;30.75;41.64;101074.06;146621;602;47010;-70
2023/06/21 13:13:02;;;;;;;;;8.67;8.67;;;;;30.74;40.60;101072.28;146617;630;46016;-70
2023/06/21 13:16:15;;;;;;;;;;;;;;;;;;;;;
2023/06/21 13:19:20;;;;;;;;;8.00;8.00;;;;;30.86;40.11;101072.91;146617;577;46016;-71
2023/06/21 13:22:20;;;;;;;;;8.50;8.00;;;;;30.83;38.72;101069.38;146620;570;47011;-70
2023/06/21 13:25:18;;;;;;;;;9.67;8.67;;;;;30.79;39.21;101067.72;146619;581;47012;-71
2023/06/21 13:28:26;;;;;;;;;8.33;8.33;;;;;29.58;40.42;100858.62;146623;625;46010;-71
2023/06/21 13:31:21;;;;;;;;;9.00;9.00;;;;;30.77;38.61;101061.50;146618;672;47014;-69
2023/06/21 13:34:20;;;;;;;;;7.67;7.67;;;;;30.80;39.77;101064.09;146625;618;46010;-70
2023/06/21 13:37:29;;;;;;;;;8.67;8.67;;;;;30.88;40.81;101065.72;146618;576;46017;-69
2023/06/21 13:40:31;;;;;;;;;8.00;7.67;;;;;30.97;41.06;101069.03;146623;563;47010;-69
2023/06/21 13:43:28;;;;;;;;;7.67;7.33;;;;;31.05;40.48;101058.06;146620;625;46017;-69
2023/06/21 13:46:27;;;;;;;;;12.00;9.00;;;;;31.10;41.76;101060.63;146621;571;46021;-70
2023/06/21 13:49:22;;;;;;;;;10.50;10.00;;;;;31.08;40.57;101065.16;146618;624;46012;-68
2023/06/21 13:52:35;;;;;;;;;10.00;9.00;;;;;31.03;41.09;101074.19;146618;611;46030;-68
2023/06/21 13:55:30;;;;;;;;;8.50;8.50;;;;;31.02;40.47;101071.56;146618;650;46024;-68
2023/06/21 13:58:38;;;;;;;;;7.00;7.00;;;;;31.04;41.69;101072.41;146623;579;47010;-68
2023/06/21 14:01:38;;;;;;;;;8.00;8.00;;;;;31.05;41.35;101069.66;146620;571;46016;-71
2023/06/21 14:04:32;;;;;;;;;9.00;9.00;;;;;30.99;41.53;101066.28;146621;589;46020;-69
2023/06/21 14:07:34;;;;;;;;;8.00;7.67;;;;;30.92;41.02;101062.03;146618;621;46918;-69
2023/06/21 14:10:33;;;;;;;;;9.00;9.00;;;;;30.88;41.46;101066.59;146622;574;46010;-68
2023/06/21 14:13:40;;;;;;;;;6.67;6.67;;;;;30.89;42.08;101067.47;146618;598;47012;-68
2023/06/21 14:16:35;;;;;;;;;8.67;8.00;;;;;30.89;41.31;101065.66;146622;575;46020;-69
2023/06/21 14:19:33;;;;;;;;;7.33;7.33;;;;;30.87;38.14;101072.84;146618;569;46016;-69
2023/06/21 14:22:40;;;;;;;;;8.33;8.33;;;;;30.82;39.27;101056.94;146621;652;46012;-68
2023/06/21 14:25:47;;;;;;;;;8.00;7.00;;;;;30.73;39.42;101064.31;146619;622;46016;-69
2023/06/21 14:28:42;;;;;;;;;6.33;6.33;;;;;30.64;39.01;101060.06;146618;601;47010;-70